Terminal Aerodrome Forecast
Issued by NWS Des Moines, IA

Home | Current Version | Previous Version | Text Only | Print | Product List | Glossary On
Versions: 1 2 3 4 5 6 7 8 9 10 11 12 13 14
000
FTUS43 KDMX 061720
TAFALO
TAF
KALO 061720Z 0618/0718 26014G22KT P6SM SKC
     FM070100 23010KT P6SM FEW150
     FM071000 31008KT P6SM SCT060 BKN100
     FM071400 03010KT P6SM VCSH SCT040 BKN080=

USA.gov is the U.S. government's official web portal to all federal, state and local government web resources and services.